createdAt,value
2024-02-05T00:00:53.995Z,2.40
2024-02-05T00:04:27.803Z,2.80
2024-02-05T00:07:57.696Z,3.20
2024-02-05T00:11:25.211Z,2.00
2024-02-05T00:14:50.940Z,2.10
2024-02-05T00:18:17.328Z,1.90
2024-02-05T00:21:43.300Z,2.60
2024-02-05T00:25:11.313Z,2.00
2024-02-05T00:28:37.424Z,2.10
2024-02-05T00:32:03.534Z,2.20
2024-02-05T00:35:29.767Z,2.10
2024-02-05T00:38:56.413Z,2.30
2024-02-05T00:42:22.465Z,2.50
2024-02-05T00:45:48.823Z,1.90
2024-02-05T00:49:14.986Z,1.50
2024-02-05T00:52:40.799Z,1.90
2024-02-05T00:56:08.089Z,2.00
2024-02-05T00:59:35.385Z,1.60
2024-02-05T01:03:01.562Z,2.00
2024-02-05T01:06:27.983Z,1.80
2024-02-05T01:09:54.201Z,1.90
2024-02-05T01:13:20.540Z,1.70
2024-02-05T01:16:46.340Z,1.80
2024-02-05T01:20:13.363Z,1.40
2024-02-05T01:23:39.847Z,1.60
2024-02-05T01:27:06.373Z,1.50
2024-02-05T01:30:32.153Z,1.10
2024-02-05T01:33:58.037Z,1.20
2024-02-05T01:37:24.498Z,1.70
2024-02-05T01:40:50.701Z,1.10
2024-02-05T01:44:16.537Z,1.30
2024-02-05T01:47:43.798Z,1.20
2024-02-05T01:51:10.014Z,1.50
2024-02-05T01:54:38.255Z,1.00
2024-02-05T01:58:04.152Z,1.20
2024-02-05T02:01:31.617Z,1.10
2024-02-05T02:04:58.762Z,1.10
2024-02-05T02:08:30.481Z,1.00
2024-02-05T02:11:56.609Z,0.90
2024-02-05T02:15:22.575Z,1.00
2024-02-05T02:18:50.360Z,0.70
2024-02-05T02:22:22.862Z,0.70
2024-02-05T02:25:52.392Z,0.60
2024-02-05T02:29:18.578Z,0.90
2024-02-05T02:32:50.833Z,1.30
2024-02-05T02:36:25.858Z,0.90
2024-02-05T02:40:01.279Z,1.20
2024-02-05T02:43:29.377Z,0.90
2024-02-05T02:46:59.248Z,0.80
2024-02-05T02:50:26.323Z,0.70
2024-02-05T02:53:53.064Z,0.70
2024-02-05T02:57:19.077Z,0.50
2024-02-05T03:00:45.439Z,0.70
2024-02-05T03:04:12.008Z,0.60
2024-02-05T03:07:38.220Z,0.60
2024-02-05T03:11:05.978Z,0.80
2024-02-05T03:14:31.952Z,0.80
2024-02-05T03:17:59.553Z,0.60
2024-02-05T03:21:25.591Z,0.70
2024-02-05T03:24:52.067Z,0.60
2024-02-05T03:28:18.426Z,0.90
2024-02-05T03:31:45.876Z,0.80
2024-02-05T03:35:14.055Z,0.90
2024-02-05T03:38:40.346Z,0.80
2024-02-05T03:42:06.574Z,0.60
2024-02-05T03:45:33.246Z,0.70
2024-02-05T03:48:59.494Z,0.90
2024-02-05T03:52:26.014Z,0.80
2024-02-05T03:55:52.254Z,0.50
2024-02-05T03:59:18.450Z,0.50
2024-02-05T04:02:45.027Z,0.70
2024-02-05T04:06:11.828Z,0.60
2024-02-05T04:09:40.195Z,0.80
2024-02-05T04:13:06.410Z,0.60
2024-02-05T04:16:32.934Z,0.80
2024-02-05T04:19:59.384Z,0.60
2024-02-05T04:23:27.007Z,1.00
2024-02-05T04:26:52.982Z,0.70
2024-02-05T04:30:30.359Z,0.70
2024-02-05T04:33:56.470Z,0.50
2024-02-05T04:37:22.900Z,0.90
2024-02-05T04:40:48.996Z,0.50
2024-02-05T04:44:15.928Z,0.60
2024-02-05T04:47:42.792Z,0.50
2024-02-05T04:51:14.020Z,0.50
2024-02-05T04:54:39.789Z,0.60
2024-02-05T04:58:06.406Z,0.50
2024-02-05T05:01:33.712Z,0.60
2024-02-05T05:05:00.170Z,0.80
2024-02-05T05:08:26.885Z,0.90
2024-02-05T05:11:53.105Z,1.00
2024-02-05T05:15:19.716Z,0.80
2024-02-05T05:18:46.074Z,1.10
2024-02-05T05:22:12.214Z,1.00
2024-02-05T05:25:39.458Z,1.20
2024-02-05T05:29:05.697Z,0.90
2024-02-05T05:32:31.911Z,0.90
2024-02-05T05:35:58.165Z,1.30
2024-02-05T05:39:23.992Z,1.40
2024-02-05T05:42:50.303Z,1.30
2024-02-05T05:46:16.280Z,1.40
2024-02-05T05:49:43.063Z,1.30
2024-02-05T05:53:09.615Z,1.20
2024-02-05T05:56:35.987Z,1.10
2024-02-05T06:00:05.189Z,1.60
2024-02-05T06:03:32.355Z,1.00
2024-02-05T06:07:01.553Z,0.90
2024-02-05T06:10:28.630Z,0.90
2024-02-05T06:13:55.059Z,1.00
2024-02-05T06:17:21.374Z,1.00
2024-02-05T06:20:48.328Z,0.80
2024-02-05T06:24:16.257Z,0.80
2024-02-05T06:27:42.701Z,1.00
2024-02-05T06:31:11.175Z,0.90
2024-02-05T06:34:37.228Z,0.90
2024-02-05T06:38:03.299Z,0.80
2024-02-05T06:41:32.289Z,1.00
2024-02-05T06:44:58.449Z,0.90
2024-02-05T06:48:24.554Z,0.90
2024-02-05T06:51:50.482Z,0.80
2024-02-05T06:55:16.737Z,1.10
2024-02-05T06:58:42.858Z,1.50
2024-02-05T07:02:10.814Z,1.30
2024-02-05T07:05:37.724Z,1.30
2024-02-05T07:09:03.815Z,1.50
2024-02-05T07:12:30.268Z,1.10
2024-02-05T07:15:56.306Z,1.70
2024-02-05T07:19:24.182Z,1.40
2024-02-05T07:22:51.737Z,1.20
2024-02-05T07:26:17.759Z,1.40
2024-02-05T07:29:44.703Z,1.30
2024-02-05T07:33:10.445Z,1.00
2024-02-05T07:36:36.768Z,0.90
2024-02-05T07:40:05.221Z,1.10
2024-02-05T07:43:31.363Z,1.20
2024-02-05T07:46:58.141Z,1.20
2024-02-05T07:50:24.680Z,1.00
2024-02-05T07:53:51.937Z,1.20
2024-02-05T07:57:20.526Z,1.30
2024-02-05T08:00:47.256Z,1.50
2024-02-05T08:04:13.285Z,1.30
2024-02-05T08:07:39.686Z,1.60
2024-02-05T08:11:06.095Z,1.30
2024-02-05T08:14:31.779Z,1.40
2024-02-05T08:17:57.776Z,1.00
2024-02-05T08:21:23.969Z,1.10
2024-02-05T08:24:49.918Z,1.80
2024-02-05T08:28:16.190Z,1.30
2024-02-05T08:31:42.316Z,1.00
2024-02-05T08:35:10.733Z,0.80
2024-02-05T08:38:36.836Z,1.00
2024-02-05T08:42:11.944Z,1.10
2024-02-05T08:45:42.467Z,0.90
2024-02-05T08:49:08.828Z,1.40
2024-02-05T08:52:34.872Z,1.40
2024-02-05T08:56:00.827Z,0.70
2024-02-05T08:59:26.810Z,0.80
2024-02-05T09:02:55.459Z,1.20
2024-02-05T09:06:21.369Z,1.70
2024-02-05T09:09:47.464Z,1.30
2024-02-05T09:13:13.785Z,1.10
2024-02-05T09:16:39.774Z,1.40
2024-02-05T09:20:08.388Z,1.40
2024-02-05T09:23:36.007Z,1.00
2024-02-05T09:27:01.793Z,0.90
2024-02-05T09:30:27.524Z,1.40
2024-02-05T09:33:53.566Z,0.90
2024-02-05T09:37:19.548Z,1.40
2024-02-05T09:40:46.122Z,1.10
2024-02-05T09:44:13.068Z,1.40
2024-02-05T09:47:43.598Z,1.60
2024-02-05T09:51:10.555Z,1.80
2024-02-05T09:54:36.883Z,1.70
2024-02-05T09:58:03.623Z,2.20
2024-02-05T10:01:32.128Z,2.40
2024-02-05T10:05:02.633Z,1.20
2024-02-05T10:08:30.359Z,1.30
2024-02-05T10:11:56.779Z,1.50
2024-02-05T10:15:23.326Z,1.50
2024-02-05T10:18:49.480Z,1.40
2024-02-05T10:22:15.738Z,1.90
2024-02-05T10:25:42.958Z,1.30
2024-02-05T10:29:13.017Z,1.60
2024-02-05T10:32:40.894Z,1.70
2024-02-05T10:36:08.112Z,1.30
2024-02-05T10:39:34.564Z,1.20
2024-02-05T10:43:00.431Z,1.70
2024-02-05T10:46:34.673Z,1.60
2024-02-05T10:50:01.818Z,2.00
2024-02-05T10:53:29.227Z,1.60
2024-02-05T10:56:56.295Z,3.00
2024-02-05T11:00:24.400Z,2.80
2024-02-05T11:03:56.451Z,3.20
2024-02-05T11:07:25.843Z,1.80
2024-02-05T11:10:56.771Z,1.40
2024-02-05T11:14:23.435Z,1.80
2024-02-05T11:17:51.057Z,1.30
2024-02-05T11:21:21.279Z,1.80
2024-02-05T11:24:48.460Z,1.70
2024-02-05T11:28:15.667Z,1.30
2024-02-05T11:31:43.154Z,1.00
2024-02-05T11:35:15.384Z,1.20
2024-02-05T11:38:43.661Z,1.10
2024-02-05T11:42:13.041Z,1.20
2024-02-05T11:45:39.408Z,1.30
2024-02-05T11:49:06.334Z,1.60
2024-02-05T11:52:36.119Z,1.10
2024-02-05T11:56:02.106Z,1.80
2024-02-05T11:59:30.403Z,1.20
2024-02-05T12:02:57.478Z,1.40
2024-02-05T12:06:26.756Z,1.50
2024-02-05T12:09:52.880Z,1.30
2024-02-05T12:13:20.600Z,1.60
2024-02-05T12:16:46.794Z,1.50
2024-02-05T12:20:18.433Z,2.00
2024-02-05T12:23:44.176Z,1.50
2024-02-05T12:27:10.842Z,1.20
2024-02-05T12:30:36.976Z,1.40
2024-02-05T12:34:03.311Z,1.80
2024-02-05T12:37:30.545Z,1.50
2024-02-05T12:40:57.465Z,3.00
2024-02-05T12:44:31.363Z,1.40
2024-02-05T12:48:06.739Z,1.30
2024-02-05T12:51:34.502Z,1.90
2024-02-05T12:55:00.643Z,2.60
2024-02-05T12:58:28.655Z,2.00
2024-02-05T13:02:01.311Z,1.80
2024-02-05T13:05:30.331Z,1.60
2024-02-05T13:09:01.260Z,1.70
2024-02-05T13:12:27.205Z,1.90
2024-02-05T13:15:53.602Z,1.30
2024-02-05T13:19:21.118Z,1.30
2024-02-05T13:22:47.546Z,1.60
2024-02-05T13:26:13.624Z,1.50
2024-02-05T13:29:39.925Z,3.00
2024-02-05T13:33:07.168Z,2.10
2024-02-05T13:36:33.323Z,1.90
2024-02-05T13:39:59.787Z,1.70
2024-02-05T13:43:26.364Z,2.40
2024-02-05T13:46:52.645Z,3.10
2024-02-05T13:50:19.222Z,2.50
2024-02-05T13:53:45.273Z,3.00
2024-02-05T13:57:11.292Z,2.20
2024-02-05T14:00:37.682Z,10.70
2024-02-05T14:04:03.249Z,6.00
2024-02-05T14:07:29.301Z,3.40
2024-02-05T14:10:55.663Z,2.50
2024-02-05T14:14:21.711Z,3.90
2024-02-05T14:17:47.551Z,2.10
2024-02-05T14:21:14.520Z,2.50
2024-02-05T14:24:40.308Z,2.40
2024-02-05T14:28:07.443Z,2.30
2024-02-05T14:31:33.345Z,1.90
2024-02-05T14:35:00.028Z,1.90
2024-02-05T14:38:26.162Z,1.80
2024-02-05T14:41:52.912Z,1.90
2024-02-05T14:45:19.099Z,2.10
2024-02-05T14:48:46.931Z,2.40
2024-02-05T14:52:12.616Z,2.10
2024-02-05T14:55:39.525Z,2.10
2024-02-05T14:59:05.616Z,1.60
2024-02-05T15:02:32.465Z,2.10
2024-02-05T15:05:58.634Z,1.20
2024-02-05T15:09:24.563Z,1.70
2024-02-05T15:12:52.142Z,1.60
2024-02-05T15:16:18.196Z,1.60
2024-02-05T15:19:44.586Z,2.00
2024-02-05T15:23:10.817Z,2.10
2024-02-05T15:26:37.849Z,2.60
2024-02-05T15:30:03.730Z,3.00
2024-02-05T15:33:29.749Z,3.60
2024-02-05T15:36:55.752Z,4.10
2024-02-05T15:40:22.537Z,4.90
2024-02-05T15:43:51.586Z,5.40
2024-02-05T15:47:18.123Z,5.00
2024-02-05T15:50:44.217Z,3.80
2024-02-05T15:54:10.305Z,3.40
2024-02-05T15:57:38.462Z,4.60
2024-02-05T16:01:05.952Z,4.60
2024-02-05T16:04:32.014Z,4.30
2024-02-05T16:07:59.009Z,3.30
2024-02-05T16:11:25.878Z,3.20
2024-02-05T16:14:52.153Z,2.80
2024-02-05T16:18:17.900Z,5.20
2024-02-05T16:21:43.883Z,3.90
2024-02-05T16:25:10.938Z,2.90
2024-02-05T16:28:37.318Z,2.40
2024-02-05T16:32:03.290Z,2.90
2024-02-05T16:35:29.125Z,2.10
2024-02-05T16:38:55.558Z,1.80
2024-02-05T16:42:25.953Z,3.00
2024-02-05T16:45:52.564Z,5.90
2024-02-05T16:49:19.198Z,4.80
2024-02-05T16:52:46.024Z,6.50
2024-02-05T16:56:12.659Z,6.00
2024-02-05T16:59:38.719Z,6.30
2024-02-05T17:03:08.002Z,6.00
2024-02-05T17:06:34.821Z,5.10
2024-02-05T17:10:00.972Z,5.10
2024-02-05T17:13:27.380Z,5.00
2024-02-05T17:16:58.714Z,5.50
2024-02-05T17:20:26.350Z,6.50
2024-02-05T17:23:52.523Z,5.60
2024-02-05T17:27:19.246Z,7.00
2024-02-05T17:30:45.043Z,9.40
2024-02-05T17:34:11.784Z,9.40
2024-02-05T17:37:37.966Z,8.30
2024-02-05T17:41:04.464Z,7.80
2024-02-05T17:44:30.204Z,6.10
2024-02-05T17:47:55.990Z,6.90
2024-02-05T17:51:22.675Z,8.30
2024-02-05T17:54:48.545Z,7.60
2024-02-05T17:58:16.683Z,8.30
2024-02-05T18:01:42.563Z,7.90
2024-02-05T18:05:09.725Z,9.30
2024-02-05T18:08:37.271Z,12.40
2024-02-05T18:12:04.519Z,11.60
2024-02-05T18:15:32.315Z,8.80
2024-02-05T18:18:59.392Z,6.40
2024-02-05T18:22:25.283Z,5.20
2024-02-05T18:25:52.515Z,5.60
2024-02-05T18:29:19.047Z,7.10
2024-02-05T18:32:45.014Z,5.40
2024-02-05T18:36:11.628Z,8.10
2024-02-05T18:39:37.665Z,5.70
2024-02-05T18:43:03.511Z,8.60
2024-02-05T18:46:29.546Z,22.20
2024-02-05T18:49:55.428Z,8.40
2024-02-05T18:53:21.475Z,7.60
2024-02-05T18:56:49.450Z,6.70
2024-02-05T19:00:16.510Z,5.10
2024-02-05T19:03:43.023Z,7.80
2024-02-05T19:07:09.617Z,15.20
2024-02-05T19:10:35.837Z,8.20
2024-02-05T19:14:02.278Z,3.80
2024-02-05T19:17:28.801Z,7.70
2024-02-05T19:20:56.030Z,7.60
2024-02-05T19:24:21.992Z,8.70
2024-02-05T19:27:48.200Z,6.90
2024-02-05T19:31:14.612Z,5.00
2024-02-05T19:34:40.533Z,12.90
2024-02-05T19:38:07.242Z,21.80
2024-02-05T19:41:33.230Z,13.00
2024-02-05T19:44:59.398Z,8.40
2024-02-05T19:48:25.934Z,11.50
2024-02-05T19:51:52.816Z,5.20
2024-02-05T19:55:23.024Z,4.40
2024-02-05T19:58:50.136Z,4.30
2024-02-05T20:02:16.749Z,5.80
2024-02-05T20:05:42.996Z,6.20
2024-02-05T20:09:09.022Z,4.50
2024-02-05T20:12:35.300Z,6.90
2024-02-05T20:16:02.534Z,5.60
2024-02-05T20:19:28.866Z,5.90
2024-02-05T20:22:56.783Z,4.20
2024-02-05T20:26:23.402Z,4.30
2024-02-05T20:29:49.476Z,4.50
2024-02-05T20:33:15.518Z,4.30
2024-02-05T20:36:42.076Z,9.00
2024-02-05T20:40:10.347Z,8.60
2024-02-05T20:43:36.577Z,10.90
2024-02-05T20:47:02.327Z,11.50
2024-02-05T20:50:31.062Z,9.40
2024-02-05T20:53:57.346Z,9.20
2024-02-05T20:57:23.641Z,9.80
2024-02-05T21:00:51.447Z,9.90
2024-02-05T21:04:19.132Z,12.10
2024-02-05T21:07:45.262Z,13.40
2024-02-05T21:11:11.428Z,12.90
2024-02-05T21:14:43.880Z,13.80
2024-02-05T21:18:11.615Z,16.20
2024-02-05T21:21:38.617Z,16.30
2024-02-05T21:25:06.053Z,14.80
2024-02-05T21:28:32.593Z,15.40
2024-02-05T21:31:59.313Z,17.60
2024-02-05T21:35:25.401Z,16.10
2024-02-05T21:38:51.182Z,12.10
2024-02-05T21:42:17.166Z,5.80
2024-02-05T21:45:44.644Z,3.50
2024-02-05T21:49:11.603Z,2.90
2024-02-05T21:52:40.275Z,2.30
2024-02-05T21:56:08.608Z,1.70
2024-02-05T21:59:34.464Z,1.70
2024-02-05T22:03:00.380Z,1.70
2024-02-05T22:06:26.863Z,2.30
2024-02-05T22:09:53.476Z,2.10
2024-02-05T22:13:19.921Z,1.50
2024-02-05T22:16:46.852Z,1.60
2024-02-05T22:20:17.598Z,1.60
2024-02-05T22:23:43.621Z,1.50
2024-02-05T22:27:12.602Z,1.90
2024-02-05T22:30:38.756Z,1.50
2024-02-05T22:34:13.195Z,1.20
2024-02-05T22:37:46.982Z,1.60
2024-02-05T22:41:12.660Z,1.60
2024-02-05T22:44:38.727Z,1.60
2024-02-05T22:48:04.889Z,2.00
2024-02-05T22:51:31.406Z,1.50
2024-02-05T22:54:57.519Z,1.60
2024-02-05T22:58:24.072Z,1.40
2024-02-05T23:01:50.602Z,1.60
2024-02-05T23:05:17.763Z,1.70
2024-02-05T23:08:44.024Z,1.50
2024-02-05T23:12:11.068Z,2.00
2024-02-05T23:15:37.571Z,1.90
2024-02-05T23:19:07.161Z,1.90
2024-02-05T23:22:34.134Z,1.50
2024-02-05T23:26:00.647Z,1.60
2024-02-05T23:29:27.364Z,1.80
2024-02-05T23:32:56.541Z,1.80
2024-02-05T23:36:24.313Z,1.40
2024-02-05T23:39:50.465Z,1.80
2024-02-05T23:43:16.865Z,1.50
2024-02-05T23:46:43.242Z,1.60
2024-02-05T23:50:10.515Z,1.60
2024-02-05T23:53:36.757Z,1.40
2024-02-05T23:57:03.397Z,1.70
